createdAt,value
2022-12-15T00:01:24.991Z,0.6
2022-12-15T00:03:05.469Z,0.9
2022-12-15T00:04:45.538Z,1.2
2022-12-15T00:06:25.739Z,0.9
2022-12-15T00:08:05.886Z,0.6
2022-12-15T00:09:46.160Z,0.7
2022-12-15T00:11:26.334Z,0.7
2022-12-15T00:13:06.521Z,0.6
2022-12-15T00:14:46.703Z,0.7
2022-12-15T00:16:27.089Z,0.5
2022-12-15T00:18:07.392Z,0.5
2022-12-15T00:19:47.572Z,0.4
2022-12-15T00:21:27.785Z,0.5
2022-12-15T00:23:07.965Z,0.4
2022-12-15T00:24:49.923Z,0.6
2022-12-15T00:26:28.388Z,0.4
2022-12-15T00:28:08.635Z,0.4
2022-12-15T00:29:48.889Z,0.6
2022-12-15T00:31:29.186Z,0.9
2022-12-15T00:33:09.293Z,1
2022-12-15T00:34:49.554Z,1.1
2022-12-15T00:36:29.732Z,1.2
2022-12-15T00:38:09.927Z,1.2
2022-12-15T00:39:50.096Z,1.2
2022-12-15T00:41:30.329Z,1.1
2022-12-15T00:43:10.556Z,0.9
2022-12-15T00:44:50.880Z,1
2022-12-15T00:46:31.156Z,1.2
2022-12-15T00:48:11.252Z,0.9
2022-12-15T00:49:51.457Z,0.9
2022-12-15T00:51:31.644Z,0.6
2022-12-15T00:53:11.951Z,0.7
2022-12-15T00:54:52.158Z,0.9
2022-12-15T00:56:32.430Z,0.8
2022-12-15T00:58:12.695Z,0.7
2022-12-15T00:59:52.872Z,0.7
2022-12-15T01:01:33.296Z,0.8
2022-12-15T01:03:13.530Z,0.8
2022-12-15T01:04:53.667Z,0.7
2022-12-15T01:06:33.935Z,0.7
2022-12-15T01:08:14.123Z,0.6
2022-12-15T01:09:54.384Z,0.6
2022-12-15T01:11:34.563Z,1.3
2022-12-15T01:13:14.792Z,0.9
2022-12-15T01:14:55.096Z,0.8
2022-12-15T01:16:35.528Z,0.7
2022-12-15T01:18:15.709Z,0.5
2022-12-15T01:19:55.820Z,0.8
2022-12-15T01:21:36.032Z,0.5
2022-12-15T01:23:16.311Z,0.6
2022-12-15T01:24:56.640Z,0.6
2022-12-15T01:26:36.818Z,0.7
2022-12-15T01:28:17.049Z,0.9
2022-12-15T01:29:57.238Z,0.6
2022-12-15T01:31:37.544Z,0.7
2022-12-15T01:33:17.678Z,0.8
2022-12-15T01:34:57.884Z,0.7
2022-12-15T01:36:38.067Z,0.7
2022-12-15T01:38:18.239Z,0.5
2022-12-15T01:39:58.461Z,0.7
2022-12-15T01:41:38.677Z,0.7
2022-12-15T01:43:18.898Z,0.7
2022-12-15T01:44:59.113Z,0.7
2022-12-15T01:46:39.319Z,0.9
2022-12-15T01:48:19.495Z,0.6
2022-12-15T01:49:59.684Z,0.7
2022-12-15T01:51:39.923Z,0.8
2022-12-15T01:53:20.187Z,0.9
2022-12-15T01:55:00.476Z,1.1
2022-12-15T01:56:40.671Z,1.1
2022-12-15T01:58:20.846Z,1
2022-12-15T02:00:01.115Z,0.9
2022-12-15T02:01:41.440Z,1
2022-12-15T02:03:21.606Z,1
2022-12-15T02:05:01.678Z,1.1
2022-12-15T02:06:41.909Z,0.9
2022-12-15T02:08:22.162Z,1.1
2022-12-15T02:10:02.390Z,1.2
2022-12-15T02:11:42.624Z,1.2
2022-12-15T02:13:22.813Z,1.3
2022-12-15T02:15:03.058Z,1.3
2022-12-15T02:16:43.334Z,1.5
2022-12-15T02:18:23.608Z,1.5
2022-12-15T02:20:03.830Z,1.5
2022-12-15T02:21:43.972Z,1.5
2022-12-15T02:23:24.243Z,2.6
2022-12-15T02:25:04.489Z,1.7
2022-12-15T02:26:44.729Z,2.2
2022-12-15T02:28:24.918Z,1.6
2022-12-15T02:30:05.181Z,1.4
2022-12-15T02:31:45.451Z,1
2022-12-15T02:33:25.588Z,0.8
2022-12-15T02:35:05.910Z,0.7
2022-12-15T02:36:46.092Z,0.6
2022-12-15T02:38:26.306Z,0.6
2022-12-15T02:40:06.439Z,0.6
2022-12-15T02:41:46.671Z,0.5
2022-12-15T02:43:26.939Z,0.5
2022-12-15T02:45:07.138Z,0.7
2022-12-15T02:46:47.319Z,0.8
2022-12-15T02:48:27.569Z,1.1
2022-12-15T02:50:07.758Z,1.2
2022-12-15T02:51:48.058Z,1.5
2022-12-15T02:53:28.580Z,1.7
2022-12-15T02:55:08.442Z,1.9
2022-12-15T02:58:28.918Z,1.1
2022-12-15T03:00:09.074Z,0.9
2022-12-15T03:01:49.920Z,1.1
2022-12-15T03:03:29.978Z,1.4
2022-12-15T03:05:09.661Z,1.1
2022-12-15T03:06:49.948Z,1.8
2022-12-15T03:08:30.124Z,1.4
2022-12-15T03:10:10.429Z,1.6
2022-12-15T03:11:50.493Z,1.3
2022-12-15T03:13:31.115Z,1.3
2022-12-15T03:15:11.143Z,1.2
2022-12-15T03:16:51.432Z,1
2022-12-15T03:18:31.610Z,1.3
2022-12-15T03:20:11.793Z,1.4
2022-12-15T03:21:51.979Z,1.4
2022-12-15T03:23:32.604Z,0.9
2022-12-15T03:25:12.374Z,0.9
2022-12-15T03:26:52.567Z,1.2
2022-12-15T03:28:32.811Z,2
2022-12-15T03:30:13.094Z,2
2022-12-15T03:31:53.428Z,1.3
2022-12-15T03:33:34.244Z,1.5
2022-12-15T03:35:13.814Z,2
2022-12-15T03:36:54.070Z,1.5
2022-12-15T03:38:34.307Z,1.4
2022-12-15T03:40:14.595Z,1.3
2022-12-15T03:41:54.874Z,1.7
2022-12-15T03:43:35.085Z,1.6
2022-12-15T03:45:15.471Z,1.5
2022-12-15T03:47:01.311Z,1.5
2022-12-15T03:48:35.853Z,1.5
2022-12-15T03:50:16.084Z,1.9
2022-12-15T03:51:56.232Z,1.9
2022-12-15T03:53:36.415Z,1.5
2022-12-15T03:55:16.602Z,1.5
2022-12-15T03:56:56.751Z,1.5
2022-12-15T03:58:36.936Z,1.4
2022-12-15T04:00:17.156Z,1.4
2022-12-15T04:01:57.514Z,1.5
2022-12-15T04:03:37.620Z,1.2
2022-12-15T04:05:17.756Z,1.2
2022-12-15T04:06:57.950Z,1.5
2022-12-15T04:08:38.187Z,1.7
2022-12-15T04:10:18.531Z,1.5
2022-12-15T04:11:58.633Z,1.8
2022-12-15T04:13:38.817Z,2
2022-12-15T04:15:18.962Z,1.9
2022-12-15T04:16:59.310Z,1.4
2022-12-15T04:18:39.422Z,1.7
2022-12-15T04:20:19.654Z,1.5
2022-12-15T04:21:59.812Z,1.6
2022-12-15T04:23:40.097Z,1.7
2022-12-15T04:25:20.310Z,1.7
2022-12-15T04:27:00.534Z,1.5
2022-12-15T04:28:40.732Z,1.1
2022-12-15T04:30:20.951Z,1
2022-12-15T04:32:01.287Z,1.5
2022-12-15T04:33:41.418Z,1.2
2022-12-15T04:35:21.615Z,1.6
2022-12-15T04:37:01.893Z,1.5
2022-12-15T04:38:49.913Z,1.7
2022-12-15T04:40:22.430Z,1.7
2022-12-15T04:42:02.628Z,1.5
2022-12-15T04:43:42.830Z,1.5
2022-12-15T04:45:23.037Z,1.6
2022-12-15T04:47:03.259Z,1.4
2022-12-15T04:48:43.465Z,1.5
2022-12-15T04:50:23.665Z,1.3
2022-12-15T04:52:03.886Z,1.3
2022-12-15T04:53:44.100Z,1
2022-12-15T04:55:24.289Z,1.2
2022-12-15T04:57:04.487Z,1
2022-12-15T04:58:44.763Z,0.9
2022-12-15T05:00:25.046Z,1.4
2022-12-15T05:02:05.492Z,1.1
2022-12-15T05:03:45.455Z,1
2022-12-15T05:05:25.658Z,1
2022-12-15T05:07:05.862Z,1
2022-12-15T05:08:46.121Z,0.9
2022-12-15T05:10:26.358Z,1.1
2022-12-15T05:12:06.528Z,1
2022-12-15T05:13:46.736Z,0.9
2022-12-15T05:15:26.994Z,0.7
2022-12-15T05:17:07.191Z,1.3
2022-12-15T05:18:47.278Z,1
2022-12-15T05:20:27.480Z,1.4
2022-12-15T05:22:07.751Z,1.9
2022-12-15T05:23:48.040Z,2
2022-12-15T05:25:28.364Z,1.9
2022-12-15T05:27:08.656Z,1.9
2022-12-15T05:28:48.909Z,1.9
2022-12-15T05:30:29.178Z,2.7
2022-12-15T05:32:09.399Z,2.1
2022-12-15T05:33:49.636Z,1.9
2022-12-15T05:35:29.828Z,2
2022-12-15T05:37:10.076Z,2.2
2022-12-15T05:38:50.452Z,2.2
2022-12-15T05:40:30.508Z,2.4
2022-12-15T05:42:10.804Z,2.2
2022-12-15T05:43:51.125Z,2.1
2022-12-15T05:45:31.303Z,2
2022-12-15T05:47:11.561Z,1.8
2022-12-15T05:48:51.742Z,1.6
2022-12-15T05:50:31.944Z,2
2022-12-15T05:52:12.193Z,2.3
2022-12-15T05:53:52.381Z,1.8
2022-12-15T05:55:32.592Z,1.8
2022-12-15T05:57:12.765Z,1.6
2022-12-15T05:58:53.058Z,2
2022-12-15T06:00:33.323Z,2
2022-12-15T06:02:13.616Z,1.9
2022-12-15T06:03:53.695Z,1.8
2022-12-15T06:05:33.895Z,1.6
2022-12-15T06:07:14.091Z,1.3
2022-12-15T06:08:54.261Z,1.6
2022-12-15T06:10:34.509Z,1.9
2022-12-15T06:12:14.735Z,1.6
2022-12-15T06:13:54.872Z,2.1
2022-12-15T06:15:35.125Z,2.3
2022-12-15T06:17:15.363Z,2.5
2022-12-15T06:18:55.573Z,2.5
2022-12-15T06:20:35.762Z,2.2
2022-12-15T06:22:16.013Z,2.2
2022-12-15T06:23:56.213Z,2.3
2022-12-15T06:25:36.418Z,2.7
2022-12-15T06:27:16.608Z,2.5
2022-12-15T06:28:56.829Z,3
2022-12-15T06:30:37.124Z,2.6
2022-12-15T06:32:17.332Z,2.7
2022-12-15T06:34:01.711Z,2.5
2022-12-15T06:35:37.661Z,2.7
2022-12-15T06:37:17.917Z,2.2
2022-12-15T06:38:58.114Z,0.9
2022-12-15T06:40:38.497Z,0.5
2022-12-15T06:42:18.698Z,0.1
2022-12-15T06:43:58.873Z,0
2022-12-15T06:45:39.087Z,0.5
2022-12-15T06:47:19.280Z,0
2022-12-15T06:48:59.436Z,0
2022-12-15T06:50:39.671Z,0
2022-12-15T06:52:19.883Z,0
2022-12-15T06:54:00.124Z,0
2022-12-15T06:55:40.291Z,0
2022-12-15T06:57:20.472Z,0
2022-12-15T06:59:00.677Z,0
2022-12-15T07:00:40.869Z,0
2022-12-15T07:02:25.301Z,0
2022-12-15T07:04:01.662Z,0
2022-12-15T07:05:41.640Z,0
2022-12-15T07:07:21.855Z,0
2022-12-15T07:09:02.043Z,0
2022-12-15T07:10:42.258Z,0.1
2022-12-15T07:12:22.498Z,0
2022-12-15T07:14:02.675Z,0
2022-12-15T07:15:42.948Z,0
2022-12-15T07:17:23.092Z,0
2022-12-15T07:19:03.255Z,0
2022-12-15T07:20:43.478Z,0
2022-12-15T07:22:23.752Z,0.3
2022-12-15T07:24:04.439Z,0
2022-12-15T07:25:44.073Z,0
2022-12-15T07:27:24.370Z,0
2022-12-15T07:29:04.464Z,0
2022-12-15T07:30:44.673Z,0
2022-12-15T07:32:24.910Z,0
2022-12-15T07:34:05.122Z,0
2022-12-15T07:35:45.332Z,0
2022-12-15T07:37:25.580Z,0
2022-12-15T07:39:05.827Z,0
2022-12-15T07:40:45.996Z,0
2022-12-15T07:42:26.221Z,0
2022-12-15T07:44:06.438Z,0
2022-12-15T07:45:51.377Z,0
2022-12-15T07:47:26.955Z,0
2022-12-15T07:49:07.204Z,0
2022-12-15T07:50:47.568Z,0
2022-12-15T07:52:27.815Z,0
2022-12-15T07:54:07.983Z,0
2022-12-15T07:56:06.281Z,0
2022-12-15T07:57:28.588Z,0
2022-12-15T07:59:08.738Z,0
2022-12-15T08:00:49.220Z,0
2022-12-15T08:02:29.389Z,0
2022-12-15T08:04:09.428Z,0
2022-12-15T08:05:49.676Z,0
2022-12-15T08:07:29.980Z,0
2022-12-15T08:09:10.137Z,0
2022-12-15T08:10:50.376Z,0
2022-12-15T08:12:30.662Z,0
2022-12-15T08:14:16.972Z,0
2022-12-15T08:15:51.107Z,0
2022-12-15T08:17:31.322Z,0
2022-12-15T08:19:11.493Z,0
2022-12-15T08:20:51.725Z,0
2022-12-15T08:22:31.988Z,0
2022-12-15T08:24:12.133Z,0
2022-12-15T08:25:52.425Z,0
2022-12-15T08:27:32.647Z,0
2022-12-15T08:30:53.124Z,0
2022-12-15T08:32:33.313Z,0
2022-12-15T08:34:13.488Z,0
2022-12-15T08:35:57.398Z,0
2022-12-15T08:37:34.019Z,0
2022-12-15T08:39:14.230Z,0
2022-12-15T08:40:54.462Z,0
2022-12-15T08:42:34.687Z,0
2022-12-15T08:44:14.899Z,0
2022-12-15T08:45:55.177Z,0
2022-12-15T08:47:35.284Z,0
2022-12-15T08:49:21.413Z,0
2022-12-15T08:50:55.701Z,0
2022-12-15T08:52:36.014Z,0
2022-12-15T08:54:16.252Z,0.2
2022-12-15T08:55:56.506Z,0
2022-12-15T08:57:36.715Z,0
2022-12-15T08:59:16.946Z,0
2022-12-15T09:00:57.209Z,0
2022-12-15T09:02:37.665Z,0.7
2022-12-15T09:04:18.051Z,0
2022-12-15T09:05:58.105Z,0
2022-12-15T09:07:38.292Z,0.2
2022-12-15T09:09:18.491Z,1
2022-12-15T09:10:58.763Z,0.7
2022-12-15T09:12:38.928Z,0.7
2022-12-15T09:14:24.157Z,0.5
2022-12-15T09:16:09.440Z,0.8
2022-12-15T09:17:39.531Z,1
2022-12-15T09:19:19.746Z,0.5
2022-12-15T09:20:59.936Z,0
2022-12-15T09:22:40.242Z,1
2022-12-15T09:24:30.597Z,0
2022-12-15T09:26:00.688Z,0.085
2022-12-15T09:27:40.946Z,0.334
2022-12-15T09:29:21.111Z,0.9
2022-12-15T09:31:01.401Z,1.5
2022-12-15T09:32:41.544Z,0.9
2022-12-15T09:34:21.750Z,0.6
2022-12-15T09:36:02.027Z,0.2
2022-12-15T09:37:45.801Z,1
2022-12-15T09:39:22.503Z,0.1
2022-12-15T09:41:02.770Z,0
2022-12-15T09:42:59.686Z,0
2022-12-15T09:44:28.711Z,0
2022-12-15T09:46:08.997Z,0
2022-12-15T09:47:49.217Z,0.8
2022-12-15T09:49:29.415Z,0
2022-12-15T09:51:09.694Z,0
2022-12-15T09:52:50.023Z,0
2022-12-15T09:54:30.227Z,0.6
2022-12-15T09:56:10.351Z,1
2022-12-15T09:57:50.561Z,0
2022-12-15T09:59:30.822Z,0.9
2022-12-15T10:01:11.134Z,0
2022-12-15T10:02:51.583Z,0
2022-12-15T10:04:31.628Z,0.253
2022-12-15T10:06:16.499Z,1.3
2022-12-15T10:07:51.913Z,2.3
2022-12-15T10:09:32.179Z,0.9
2022-12-15T10:11:12.618Z,0.9
2022-12-15T10:14:33.135Z,0.9
2022-12-15T10:16:13.353Z,1.8
2022-12-15T10:17:53.505Z,0.7
2022-12-15T10:19:33.687Z,0
2022-12-15T10:21:13.900Z,1
2022-12-15T10:22:54.075Z,1.1
2022-12-15T10:26:14.446Z,1.2
2022-12-15T10:27:54.679Z,1.8
2022-12-15T10:29:35.017Z,0
2022-12-15T10:31:15.250Z,1.4
2022-12-15T10:32:55.448Z,2.1
2022-12-15T10:34:35.628Z,1.6
2022-12-15T10:36:15.945Z,2.4
2022-12-15T10:37:56.152Z,1.9
2022-12-15T10:39:36.324Z,0.9
2022-12-15T10:41:16.526Z,1.4
2022-12-15T10:42:56.713Z,1.3
2022-12-15T10:44:36.955Z,1.1
2022-12-15T10:46:17.228Z,2.2
2022-12-15T10:47:57.334Z,1.2
2022-12-15T10:49:37.579Z,2.2
2022-12-15T10:51:17.805Z,1
2022-12-15T10:52:58.081Z,1.7
2022-12-15T10:54:38.278Z,0.5
2022-12-15T10:56:18.452Z,1.4
2022-12-15T10:57:58.648Z,1.4
2022-12-15T10:59:38.813Z,0.331
2022-12-15T11:01:19.264Z,0
2022-12-15T11:02:59.640Z,0.425
2022-12-15T11:04:39.554Z,0.421
2022-12-15T11:06:19.707Z,0.2
2022-12-15T11:07:59.916Z,1.1
2022-12-15T11:09:40.096Z,0
2022-12-15T11:11:25.965Z,0.8
2022-12-15T11:13:00.504Z,0
2022-12-15T11:14:40.700Z,0.264
2022-12-15T11:16:20.995Z,1
2022-12-15T11:18:01.218Z,0
2022-12-15T11:19:41.412Z,0
2022-12-15T11:21:21.647Z,0
2022-12-15T11:23:01.906Z,0.6
2022-12-15T11:24:42.167Z,0
2022-12-15T11:26:22.385Z,0
2022-12-15T11:28:02.574Z,0
2022-12-15T11:29:42.800Z,0.5
2022-12-15T11:31:23.003Z,0
2022-12-15T11:33:03.281Z,0
2022-12-15T11:34:43.515Z,0.109
2022-12-15T11:36:23.703Z,0
2022-12-15T11:38:03.861Z,0
2022-12-15T11:39:44.095Z,0
2022-12-15T11:41:24.301Z,0
2022-12-15T11:43:04.562Z,0
2022-12-15T11:44:44.713Z,0
2022-12-15T11:46:25.018Z,0
2022-12-15T11:48:11.229Z,0
2022-12-15T11:49:51.428Z,0
2022-12-15T11:51:31.597Z,0.3
2022-12-15T11:53:11.809Z,0
2022-12-15T11:54:52.017Z,0.264
2022-12-15T11:56:32.221Z,0.358
2022-12-15T11:58:12.405Z,0.6
2022-12-15T11:59:52.647Z,0.1
2022-12-15T12:01:32.945Z,0.1
2022-12-15T12:03:13.138Z,0.3
2022-12-15T12:04:53.239Z,0
2022-12-15T12:06:33.440Z,0
2022-12-15T12:08:13.667Z,0.092
2022-12-15T12:09:53.968Z,0.7
2022-12-15T12:11:34.342Z,0.175
2022-12-15T12:13:14.626Z,0
2022-12-15T12:14:54.781Z,0.578
2022-12-15T12:16:35.010Z,0
2022-12-15T12:18:15.245Z,0
2022-12-15T12:19:55.693Z,0
2022-12-15T12:21:35.635Z,0
2022-12-15T12:23:15.848Z,2.7
2022-12-15T12:24:56.054Z,0.8
2022-12-15T12:26:36.245Z,1.1
2022-12-15T12:28:16.456Z,0.9
2022-12-15T12:29:56.699Z,0
2022-12-15T12:31:36.977Z,1.1
2022-12-15T12:33:17.180Z,1.4
2022-12-15T12:36:37.547Z,1.7
2022-12-15T12:38:17.758Z,1.9
2022-12-15T12:39:58.083Z,2.6
2022-12-15T12:41:38.301Z,1.8
2022-12-15T12:43:18.560Z,1.8
2022-12-15T12:44:58.821Z,1.6
2022-12-15T12:46:39.044Z,1.5
2022-12-15T12:48:19.242Z,0.092
2022-12-15T12:49:59.407Z,0
2022-12-15T12:51:39.644Z,0.2
2022-12-15T12:53:19.906Z,0.6
2022-12-15T12:55:00.110Z,0.8
2022-12-15T12:56:40.309Z,0
2022-12-15T12:58:20.562Z,1.6
2022-12-15T13:00:00.837Z,0
2022-12-15T13:01:41.276Z,0
2022-12-15T13:03:21.534Z,0.6
2022-12-15T13:05:01.543Z,1
2022-12-15T13:06:41.796Z,0
2022-12-15T13:08:22.006Z,1.2
2022-12-15T13:10:02.173Z,0.6
2022-12-15T13:11:42.324Z,1.1
2022-12-15T13:13:22.612Z,0.7
2022-12-15T13:15:02.766Z,0.6
2022-12-15T13:17:01.349Z,1.3
2022-12-15T13:18:23.148Z,2
2022-12-15T13:20:03.378Z,0.7
2022-12-15T13:21:43.523Z,1.2
2022-12-15T13:23:23.970Z,1.3
2022-12-15T13:25:04.211Z,0
2022-12-15T13:26:44.523Z,0
2022-12-15T13:28:30.486Z,0
2022-12-15T13:30:10.720Z,0
2022-12-15T13:31:51.237Z,0.6
2022-12-15T13:33:31.606Z,0.4
2022-12-15T13:35:11.374Z,0.6
2022-12-15T13:36:55.088Z,0.5
2022-12-15T13:38:31.948Z,0.8
2022-12-15T13:40:12.106Z,0.7
2022-12-15T13:43:33.041Z,0.8
2022-12-15T13:45:12.823Z,1.3
2022-12-15T13:46:52.972Z,1.6
2022-12-15T13:48:33.225Z,1.4
2022-12-15T13:50:13.372Z,2.9
2022-12-15T13:51:53.627Z,0.6
2022-12-15T13:53:34.410Z,1.4
2022-12-15T13:55:14.176Z,1.8
2022-12-15T13:56:54.363Z,1.8
2022-12-15T13:58:34.580Z,2.1
2022-12-15T14:00:14.834Z,2.3
2022-12-15T14:01:55.175Z,2.1
2022-12-15T14:03:35.762Z,1.1
2022-12-15T14:05:15.403Z,1.4
2022-12-15T14:06:55.640Z,1.5
2022-12-15T14:08:35.901Z,1.7
2022-12-15T14:10:16.142Z,1.4
2022-12-15T14:11:56.365Z,1.4
2022-12-15T14:13:37.349Z,1.2
2022-12-15T14:15:16.801Z,0.6
2022-12-15T14:16:57.050Z,1
2022-12-15T14:18:37.341Z,0.9
2022-12-15T14:20:17.423Z,0.1
2022-12-15T14:21:57.656Z,1.1
2022-12-15T14:23:37.879Z,1.1
2022-12-15T14:25:18.119Z,0.5
2022-12-15T14:26:58.342Z,1.1
2022-12-15T14:28:38.622Z,1
2022-12-15T14:30:18.736Z,0.4
2022-12-15T14:31:59.021Z,0.5
2022-12-15T14:33:39.719Z,0.1
2022-12-15T14:35:19.429Z,0.2
2022-12-15T14:36:59.613Z,0.2
2022-12-15T14:38:39.824Z,0.1
2022-12-15T14:40:24.984Z,0
2022-12-15T14:42:00.229Z,0
2022-12-15T14:43:40.489Z,0.3
2022-12-15T14:45:20.657Z,0.7
2022-12-15T14:48:42.303Z,0.6
2022-12-15T14:50:24.965Z,0.4
2022-12-15T14:52:01.474Z,0.5
2022-12-15T14:53:41.660Z,0
2022-12-15T14:55:21.871Z,0.5
2022-12-15T14:57:02.099Z,0.6
2022-12-15T14:58:42.275Z,0.3
2022-12-15T15:00:22.585Z,0
2022-12-15T15:02:02.930Z,0
2022-12-15T15:03:04.319Z,2.5
2022-12-15T15:03:05.022Z,0.6
2022-12-15T15:03:43.068Z,0
2022-12-15T15:05:23.389Z,0
2022-12-15T15:07:03.554Z,0
2022-12-15T15:08:43.847Z,0
2022-12-15T15:10:23.983Z,0
2022-12-15T15:12:04.166Z,0
2022-12-15T15:13:44.396Z,0
2022-12-15T15:15:24.572Z,0
2022-12-15T15:17:04.907Z,0
2022-12-15T15:18:45.042Z,0.1
2022-12-15T15:20:25.227Z,0
2022-12-15T15:22:05.417Z,0
2022-12-15T15:23:45.660Z,0
2022-12-15T15:25:25.854Z,0
2022-12-15T15:27:06.072Z,0
2022-12-15T15:28:46.215Z,0
2022-12-15T15:30:26.503Z,0
2022-12-15T15:32:06.777Z,0
2022-12-15T15:33:47.029Z,0
2022-12-15T15:35:27.332Z,0
2022-12-15T15:37:07.495Z,0
2022-12-15T15:38:47.752Z,0
2022-12-15T15:40:27.969Z,0.1
2022-12-15T15:42:08.168Z,0
2022-12-15T15:43:48.354Z,0
2022-12-15T15:45:28.599Z,0
2022-12-15T15:47:08.783Z,0
2022-12-15T15:48:54.574Z,0
2022-12-15T15:50:34.821Z,0
2022-12-15T15:52:15.052Z,0
2022-12-15T15:53:55.327Z,0.1
2022-12-15T15:55:39.627Z,0
2022-12-15T15:57:21.540Z,0
2022-12-15T15:59:01.826Z,0
2022-12-15T16:00:41.962Z,0
2022-12-15T16:02:22.396Z,0
2022-12-15T16:04:02.521Z,0
2022-12-15T16:05:42.647Z,0
2022-12-15T16:07:22.861Z,0
2022-12-15T16:09:03.085Z,0
2022-12-15T16:10:43.285Z,0
2022-12-15T16:12:23.563Z,0
2022-12-15T16:14:03.779Z,0
2022-12-15T16:15:43.999Z,0
2022-12-15T16:17:24.160Z,0
2022-12-15T16:19:04.384Z,0
2022-12-15T16:20:44.623Z,0
2022-12-15T16:22:24.809Z,0
2022-12-15T16:24:05.060Z,0
2022-12-15T16:25:50.541Z,0
2022-12-15T16:27:25.482Z,0
2022-12-15T16:29:05.737Z,0
2022-12-15T16:30:46.066Z,0
2022-12-15T16:32:26.227Z,0
2022-12-15T16:34:06.459Z,0
2022-12-15T16:35:46.697Z,0
2022-12-15T16:37:26.896Z,0
2022-12-15T16:39:07.126Z,0
2022-12-15T16:40:47.351Z,0
2022-12-15T16:42:27.586Z,0
2022-12-15T16:44:07.826Z,0
2022-12-15T16:45:48.034Z,0.3
2022-12-15T16:47:28.265Z,0
2022-12-15T16:49:08.557Z,1.1
2022-12-15T16:50:48.667Z,0.6
2022-12-15T16:52:28.885Z,0.5
2022-12-15T16:54:09.078Z,0
2022-12-15T16:55:49.360Z,0.9
2022-12-15T16:57:29.554Z,1
2022-12-15T16:59:31.902Z,0.5
2022-12-15T17:00:50.000Z,0.5
2022-12-15T17:02:30.550Z,0.8
2022-12-15T17:04:10.599Z,0.4
2022-12-15T17:05:50.707Z,0.5
2022-12-15T17:07:30.904Z,0.5
2022-12-15T17:09:11.084Z,0.2
2022-12-15T17:10:51.284Z,0.2
2022-12-15T17:12:31.533Z,0.9
2022-12-15T17:14:11.795Z,0
2022-12-15T17:15:52.008Z,0
2022-12-15T17:17:32.327Z,0.1
2022-12-15T17:19:17.559Z,0
2022-12-15T17:20:52.692Z,0.1
2022-12-15T17:22:32.883Z,0.1
2022-12-15T17:24:13.098Z,0
2022-12-15T17:26:21.140Z,0
2022-12-15T17:27:33.558Z,0
2022-12-15T17:29:13.744Z,0
2022-12-15T17:30:54.016Z,0
2022-12-15T17:32:34.152Z,0
2022-12-15T17:34:14.460Z,0
2022-12-15T17:35:54.699Z,0
2022-12-15T17:37:35.582Z,0
2022-12-15T17:39:15.139Z,0
2022-12-15T17:40:55.355Z,0
2022-12-15T17:42:35.562Z,0
2022-12-15T17:44:33.560Z,0
2022-12-15T17:45:55.935Z,0
2022-12-15T17:47:36.152Z,0
2022-12-15T17:49:16.389Z,0
2022-12-15T17:50:56.586Z,0
2022-12-15T17:52:36.891Z,0
2022-12-15T17:54:17.155Z,0
2022-12-15T17:55:57.311Z,0
2022-12-15T17:57:37.562Z,0
2022-12-15T17:59:17.823Z,0
2022-12-15T18:00:58.038Z,0
2022-12-15T18:02:38.408Z,0
2022-12-15T18:04:18.635Z,0
2022-12-15T18:05:58.857Z,0
2022-12-15T18:07:39.030Z,0
2022-12-15T18:09:19.257Z,0
2022-12-15T18:10:59.569Z,0
2022-12-15T18:12:39.762Z,0
2022-12-15T18:14:20.005Z,0
2022-12-15T18:16:00.246Z,0
2022-12-15T18:17:40.389Z,0
2022-12-15T18:19:20.632Z,0
2022-12-15T18:21:00.831Z,0
2022-12-15T18:22:41.013Z,0
2022-12-15T18:24:21.292Z,0
2022-12-15T18:26:03.311Z,0
2022-12-15T18:27:41.624Z,0
2022-12-15T18:29:21.840Z,0
2022-12-15T18:31:02.174Z,0
2022-12-15T18:32:42.255Z,0
2022-12-15T18:34:22.452Z,0
2022-12-15T18:36:02.709Z,0
2022-12-15T18:37:42.872Z,0
2022-12-15T18:39:23.080Z,0
2022-12-15T18:41:03.267Z,0
2022-12-15T18:42:43.541Z,0
2022-12-15T18:44:23.881Z,0
2022-12-15T18:46:04.101Z,0
2022-12-15T18:47:44.261Z,0
2022-12-15T18:49:24.478Z,0
2022-12-15T18:51:04.687Z,0
2022-12-15T18:52:44.886Z,0
2022-12-15T18:54:25.076Z,0
2022-12-15T18:56:05.295Z,0
2022-12-15T18:57:45.612Z,0
2022-12-15T18:59:25.822Z,0.4
2022-12-15T19:01:06.120Z,0.3
2022-12-15T19:02:46.502Z,0.3
2022-12-15T19:04:26.504Z,0.6
2022-12-15T19:06:06.688Z,0.6
2022-12-15T19:07:46.978Z,0.9
2022-12-15T19:09:27.161Z,0.7
2022-12-15T19:11:07.435Z,1
2022-12-15T19:12:47.690Z,1.1
2022-12-15T19:14:27.957Z,1.2
2022-12-15T19:16:08.211Z,1
2022-12-15T19:17:48.550Z,1.1
2022-12-15T19:19:28.716Z,0.8
2022-12-15T19:21:09.039Z,0.8
2022-12-15T19:22:49.338Z,0.8
2022-12-15T19:24:29.599Z,0.9
2022-12-15T19:26:09.836Z,0.6
2022-12-15T19:27:50.148Z,0.5
2022-12-15T19:29:30.367Z,0.5
2022-12-15T19:31:10.677Z,0.5
2022-12-15T19:32:50.913Z,1.1
2022-12-15T19:34:31.144Z,0.7
2022-12-15T19:36:11.323Z,0.6
2022-12-15T19:37:51.529Z,0.6
2022-12-15T19:39:31.833Z,0.6
2022-12-15T19:41:12.089Z,0.7
2022-12-15T19:42:52.350Z,1.1
2022-12-15T19:44:32.663Z,1.1
2022-12-15T19:46:12.970Z,0.8
2022-12-15T19:47:53.030Z,1.1
2022-12-15T19:49:33.245Z,0.7
2022-12-15T19:51:13.454Z,0.8
2022-12-15T19:52:53.645Z,0.9
2022-12-15T19:54:33.906Z,0.9
2022-12-15T19:56:14.235Z,1.1
2022-12-15T19:57:54.443Z,1
2022-12-15T19:59:34.671Z,0.8
2022-12-15T20:01:15.042Z,0.7
2022-12-15T20:02:55.380Z,0.9
2022-12-15T20:04:35.308Z,0.5
2022-12-15T20:06:15.583Z,0.7
2022-12-15T20:07:55.723Z,0.6
2022-12-15T20:09:35.914Z,0.7
2022-12-15T20:11:16.086Z,0
2022-12-15T20:12:56.285Z,0.4
2022-12-15T20:14:36.538Z,0.6
2022-12-15T20:16:16.721Z,0
2022-12-15T20:17:57.622Z,0.6
2022-12-15T20:19:37.165Z,0.6
2022-12-15T20:21:22.042Z,0.8
2022-12-15T20:22:57.569Z,1
2022-12-15T20:24:37.733Z,0.8
2022-12-15T20:26:17.923Z,0.9
2022-12-15T20:27:58.099Z,0.7
2022-12-15T20:29:38.293Z,0.8
2022-12-15T20:31:18.666Z,0.7
2022-12-15T20:32:58.796Z,0.5
2022-12-15T20:34:39.050Z,0.5
2022-12-15T20:36:19.220Z,0.4
2022-12-15T20:37:59.404Z,0.4
2022-12-15T20:39:39.772Z,0.7
2022-12-15T20:41:20.112Z,0.9
2022-12-15T20:43:00.400Z,1
2022-12-15T20:44:40.692Z,0.8
2022-12-15T20:46:20.870Z,0.9
2022-12-15T20:48:00.993Z,0.9
2022-12-15T20:49:41.225Z,0.8
2022-12-15T20:51:21.397Z,1.1
2022-12-15T20:53:01.585Z,1
2022-12-15T20:54:41.820Z,0.8
2022-12-15T20:56:22.098Z,0.7
2022-12-15T20:58:02.260Z,0.6
2022-12-15T20:59:42.427Z,0.7
2022-12-15T21:01:22.706Z,0.7
2022-12-15T21:03:03.077Z,1
2022-12-15T21:04:43.212Z,1
2022-12-15T21:06:23.416Z,1.1
2022-12-15T21:08:03.613Z,1.1
2022-12-15T21:09:43.839Z,0.9
2022-12-15T21:11:23.970Z,0.7
2022-12-15T21:13:04.171Z,0.9
2022-12-15T21:14:44.415Z,0.7
2022-12-15T21:16:24.782Z,0.6
2022-12-15T21:18:51.456Z,0.8
2022-12-15T21:19:45.034Z,0.8
2022-12-15T21:21:25.289Z,0.5
2022-12-15T21:23:05.484Z,0.6
2022-12-15T21:24:45.732Z,0.6
2022-12-15T21:26:25.905Z,0.6
2022-12-15T21:28:06.058Z,0.6
2022-12-15T21:29:52.059Z,0.6
2022-12-15T21:31:26.582Z,0.7
2022-12-15T21:33:06.671Z,0.7
2022-12-15T21:34:46.886Z,0.9
2022-12-15T21:36:27.041Z,0.9
2022-12-15T21:38:07.232Z,1
2022-12-15T21:39:47.486Z,0.7
2022-12-15T21:41:27.695Z,0.5
2022-12-15T21:43:07.974Z,0.4
2022-12-15T21:44:48.142Z,0.5
2022-12-15T21:46:28.803Z,0.7
2022-12-15T21:48:08.532Z,0.5
2022-12-15T21:49:48.693Z,0.5
2022-12-15T21:51:29.144Z,0.7
2022-12-15T21:53:09.041Z,0.5
2022-12-15T21:54:49.253Z,0.8
2022-12-15T21:56:29.432Z,0.6
2022-12-15T21:58:09.660Z,0.7
2022-12-15T21:59:49.868Z,0.9
2022-12-15T22:01:30.210Z,0.7
2022-12-15T22:03:10.302Z,0.5
2022-12-15T22:04:50.474Z,0.5
2022-12-15T22:06:30.765Z,0.5
2022-12-15T22:08:10.954Z,0.4
2022-12-15T22:09:51.159Z,0.5
2022-12-15T22:11:31.350Z,0.7
2022-12-15T22:13:11.641Z,0.5
2022-12-15T22:14:51.979Z,0.5
2022-12-15T22:16:32.131Z,0.8
2022-12-15T22:18:12.309Z,0.7
2022-12-15T22:19:52.510Z,0.7
2022-12-15T22:21:32.672Z,0.6
2022-12-15T22:23:12.969Z,0.9
2022-12-15T22:24:53.197Z,0.7
2022-12-15T22:26:33.390Z,1
2022-12-15T22:28:13.553Z,0.8
2022-12-15T22:29:53.770Z,0.9
2022-12-15T22:31:34.055Z,0.7
2022-12-15T22:33:20.397Z,1.1
2022-12-15T22:34:54.372Z,0.8
2022-12-15T22:36:34.584Z,0.7
2022-12-15T22:38:14.774Z,0.5
2022-12-15T22:39:54.928Z,0.5
2022-12-15T22:41:35.149Z,0.5
2022-12-15T22:43:15.366Z,0.7
2022-12-15T22:44:55.608Z,0.8
2022-12-15T22:46:35.798Z,0.9
2022-12-15T22:48:15.987Z,0.9
2022-12-15T22:49:56.200Z,0.8
2022-12-15T22:51:36.467Z,0.7
2022-12-15T22:53:16.709Z,0.6
2022-12-15T22:54:56.877Z,0.7
2022-12-15T22:56:37.041Z,0.9
2022-12-15T22:58:17.261Z,1
2022-12-15T22:59:57.461Z,1.4
2022-12-15T23:01:37.739Z,1.2
2022-12-15T23:03:17.912Z,1.1
2022-12-15T23:04:58.087Z,0.9
2022-12-15T23:06:38.271Z,1.1
2022-12-15T23:08:18.537Z,0.9
2022-12-15T23:09:58.737Z,0.9
2022-12-15T23:11:38.980Z,0.9
2022-12-15T23:13:19.193Z,0.7
2022-12-15T23:14:59.485Z,0.7
2022-12-15T23:16:39.660Z,0.8
2022-12-15T23:18:19.897Z,0.6
2022-12-15T23:20:00.213Z,0.5
2022-12-15T23:21:40.513Z,0.5
2022-12-15T23:23:20.723Z,0.5
2022-12-15T23:25:00.929Z,0.5
2022-12-15T23:26:41.087Z,0.5
2022-12-15T23:28:21.374Z,0.5
2022-12-15T23:30:01.591Z,0.5
2022-12-15T23:31:41.887Z,0.5
2022-12-15T23:33:21.988Z,0.5
2022-12-15T23:35:02.198Z,0.6
2022-12-15T23:36:42.443Z,0.6
2022-12-15T23:38:22.597Z,0.7
2022-12-15T23:40:02.813Z,0.6
2022-12-15T23:41:43.010Z,0.6
2022-12-15T23:43:23.231Z,0.9